Time;durP1;ratioP1;P1;durP2;ratioP2;P2;SDS_P1;SDS_P2;PMS_P1;PMS_P2;Temp;Humidity;BMP_temperature;BMP_pressure;BME280_temperature;BME280_humidity;BME280_pressure;Samples;Min_cycle;Max_cycle;Signal;HPM_P1;HPM_P2
2023/03/10 00:00:00;;;;;;;68.47;37.85;;;;;;;-144.73;97.88;54481.59;4984090;28;20044;-71
2023/03/10 00:02:29;;;;;;;73.15;37.65;;;;;;;-144.73;97.68;54473.38;4975961;28;20023;-71
2023/03/10 00:04:54;;;;;;;71.30;38.15;;;;;;;-144.73;97.93;54426.16;4976405;28;20506;-70
2023/03/10 00:07:20;;;;;;;75.60;37.40;;;;;;;-144.73;98.52;54456.97;4993166;28;20058;-70
2023/03/10 00:09:46;;;;;;;75.63;37.42;;;;;;;-144.73;98.48;54440.53;4976458;28;20029;-70
2023/03/10 00:12:11;;;;;;;74.05;36.83;;;;;;;-144.73;98.77;54498.00;4993283;28;20030;-71
2023/03/10 00:14:37;;;;;;;72.93;36.88;;;;;;;-144.73;98.67;54450.81;4975963;28;20023;-70
2023/03/10 00:17:02;;;;;;;69.22;35.67;;;;;;;-144.73;99.36;54465.16;4989816;28;20030;-71
2023/03/10 00:19:28;;;;;;;76.78;39.88;;;;;;;-144.73;99.02;54442.59;4975654;28;20033;-71
2023/03/10 00:21:54;;;;;;;70.80;37.25;;;;;;;-144.73;97.99;54465.16;4991319;28;20034;-71
2023/03/10 00:24:19;;;;;;;74.10;39.08;;;;;;;-144.73;98.96;54465.16;4993240;28;20030;-71
2023/03/10 00:26:45;;;;;;;72.75;36.70;;;;;;;-144.73;99.19;54444.66;4975291;28;20031;-71
2023/03/10 00:29:11;;;;;;;76.10;40.05;;;;;;;-144.73;99.00;54440.53;4976114;28;20029;-71
2023/03/10 00:31:37;;;;;;;82.43;40.55;;;;;;;-144.73;99.30;54456.97;4975216;28;20092;-71
2023/03/10 00:34:03;;;;;;;84.90;41.28;;;;;;;-144.73;99.08;54444.66;5021990;23;20046;-73
2023/03/10 00:36:32;;;;;;;76.40;40.83;;;;;;;-144.73;99.62;54502.13;5089464;23;20041;-74
2023/03/10 00:39:01;;;;;;;79.20;39.75;;;;;;;-144.73;100.00;54473.38;5106399;23;20077;-75
2023/03/10 00:41:31;;;;;;;88.63;42.72;;;;;;;-144.73;100.00;54473.38;5049756;23;20065;-73
2023/03/10 00:43:57;;;;;;;93.80;43.17;;;;;;;-144.73;100.00;54498.00;4992514;28;20033;-73
2023/03/10 00:46:24;;;;;;;89.63;44.72;;;;;;;-144.73;100.00;54502.13;5044192;28;20037;-75
2023/03/10 00:48:50;;;;;;;77.50;38.55;;;;;;;-144.73;100.00;54473.38;5020393;28;20141;-75
2023/03/10 00:51:17;;;;;;;80.70;41.05;;;;;;;-144.73;100.00;54436.44;4980691;28;20038;-74
2023/03/10 00:53:43;;;;;;;82.05;41.75;;;;;;;-144.73;100.00;54415.91;5015046;28;20113;-73
2023/03/10 00:56:18;;;;;;;77.30;40.03;;;;;;;-144.73;100.00;54469.28;5033031;23;20053;-72
2023/03/10 01:01:21;;;;;;;75.70;37.30;;;;;;;-144.73;100.00;54436.44;4992736;28;20094;-73
2023/03/10 01:03:49;;;;;;;79.30;40.80;;;;;;;-144.73;100.00;54422.06;4998036;23;20111;-74
2023/03/10 01:06:15;;;;;;;80.23;38.43;;;;;;;-144.73;100.00;54432.31;5048060;23;20392;-75
2023/03/10 01:08:40;;;;;;;82.93;40.90;;;;;;;-144.73;100.00;54469.28;5046328;28;20027;-73
2023/03/10 01:11:05;;;;;;;76.97;38.87;;;;;;;-144.73;100.00;54440.53;5040531;23;20656;-73
2023/03/10 01:13:31;;;;;;;75.67;38.03;;;;;;;-144.73;100.00;54467.22;5055145;23;20025;-72
2023/03/10 01:15:57;;;;;;;79.53;39.70;;;;;;;-144.73;100.00;54485.69;5065989;23;20043;-71
2023/03/10 01:18:22;;;;;;;75.47;38.53;;;;;;;-144.73;100.00;54481.59;5084131;23;20064;-73
2023/03/10 01:20:48;;;;;;;76.20;37.70;;;;;;;-144.73;100.00;54461.06;5038061;23;20032;-73
2023/03/10 01:23:16;;;;;;;79.53;39.43;;;;;;;-144.73;99.82;54456.97;5080452;22;20061;-75
2023/03/10 01:25:41;;;;;;;84.40;42.38;;;;;;;-144.73;100.00;54452.84;5107390;23;20507;-75
2023/03/10 01:28:08;;;;;;;90.38;44.42;;;;;;;-144.73;100.00;54450.81;5046522;23;20038;-74
2023/03/10 01:30:33;;;;;;;82.50;40.70;;;;;;;-144.73;100.00;54465.16;5000747;28;20061;-75
2023/03/10 01:32:59;;;;;;;80.07;37.80;;;;;;;-144.73;100.00;54456.97;4991943;28;20064;-73
2023/03/10 01:35:24;;;;;;;78.50;38.83;;;;;;;-144.73;100.00;54430.28;4999252;28;20056;-74
2023/03/10 01:37:50;;;;;;;78.00;38.92;;;;;;;-144.73;100.00;54452.84;5065033;23;20490;-71
2023/03/10 01:40:17;;;;;;;79.43;39.45;;;;;;;-144.73;99.94;54475.44;5062575;28;20040;-71
2023/03/10 01:42:43;;;;;;;78.47;39.35;;;;;;;-144.73;100.00;54438.50;5069839;28;20044;-71
2023/03/10 01:45:34;;;;;;;78.05;37.97;;;;;;;-144.73;100.00;54469.28;5061928;28;20024;-71
2023/03/10 01:48:03;;;;;;;78.80;39.07;;;;;;;-144.73;100.00;54452.84;5051989;28;20038;-72
2023/03/10 01:50:28;;;;;;;78.43;37.93;;;;;;;-144.73;100.00;54459.00;5052699;28;20031;-72
2023/03/10 01:52:57;;;;;;;74.80;38.47;;;;;;;-144.73;100.00;54434.38;5051987;28;20040;-73
2023/03/10 01:55:36;;;;;;;72.47;39.03;;;;;;;-144.73;100.00;54469.28;5052075;28;20032;-73
2023/03/10 01:58:04;;;;;;;79.90;39.47;;;;;;;-144.73;100.00;54428.22;5051668;28;20034;-73
2023/03/10 02:00:29;;;;;;;64.67;35.60;;;;;;;-144.73;99.79;54473.38;5052184;28;20028;-73
2023/03/10 02:03:16;;;;;;;71.72;36.58;;;;;;;-144.73;100.00;54473.38;5043384;28;20081;-73
2023/03/10 02:05:50;;;;;;;68.53;34.93;;;;;;;-144.73;100.00;54432.31;5053556;28;20034;-73
2023/03/10 02:08:17;;;;;;;67.10;35.67;;;;;;;-144.73;100.00;54475.44;5074535;28;20040;-73
2023/03/10 02:10:43;;;;;;;68.60;35.20;;;;;;;-144.73;100.00;54477.47;5056382;28;20028;-72
2023/03/10 02:13:08;;;;;;;73.10;39.47;;;;;;;-144.73;100.00;54491.84;5055049;28;20082;-73
2023/03/10 02:15:35;;;;;;;74.22;38.00;;;;;;;-144.73;100.00;54456.97;5056016;28;20066;-73
2023/03/10 02:18:02;;;;;;;68.30;36.73;;;;;;;-144.73;99.82;54446.69;5055577;28;20029;-73
2023/03/10 02:20:47;;;;;;;68.87;37.37;;;;;;;-144.73;100.00;54481.59;5056072;28;20198;-73
2023/03/10 02:23:24;;;;;;;69.87;39.90;;;;;;;-144.73;100.00;54473.38;5055614;28;20037;-72
2023/03/10 02:26:03;;;;;;;73.40;38.43;;;;;;;-144.73;100.00;54491.84;5055888;28;20147;-73
2023/03/10 02:28:28;;;;;;;72.03;38.83;;;;;;;-144.73;100.00;54469.28;5056427;28;20469;-73
2023/03/10 02:30:55;;;;;;;75.27;37.57;;;;;;;-144.73;100.00;54479.53;5055083;28;20020;-72
2023/03/10 02:33:31;;;;;;;71.43;37.93;;;;;;;-144.73;100.00;54461.06;5056151;28;20029;-72
2023/03/10 02:36:23;;;;;;;72.47;38.83;;;;;;;-144.73;100.00;54428.22;5054474;28;20028;-71
2023/03/10 02:38:49;;;;;;;76.53;39.43;;;;;;;-144.73;100.00;54436.44;5036992;28;20028;-72
2023/03/10 02:41:27;;;;;;;76.27;39.10;;;;;;;-144.73;100.00;54420.00;5073170;28;20044;-73
2023/03/10 02:43:55;;;;;;;76.17;39.53;;;;;;;-144.73;100.00;54456.97;5055038;28;20119;-72
2023/03/10 02:46:21;;;;;;;72.30;35.57;;;;;;;-144.73;100.00;54448.75;5054836;28;20040;-72
2023/03/10 02:48:46;;;;;;;71.47;37.03;;;;;;;-144.73;100.00;54452.84;5055522;28;20027;-73
2023/03/10 02:51:17;;;;;;;72.60;36.47;;;;;;;-144.73;100.00;54477.47;5054655;28;20036;-73
2023/03/10 02:53:42;;;;;;;70.23;37.43;;;;;;;-144.73;100.00;54461.06;5055858;28;20028;-72
2023/03/10 02:56:08;;;;;;;71.07;38.37;;;;;;;-144.73;100.00;54452.84;5055984;28;20052;-72
2023/03/10 02:58:34;;;;;;;65.67;33.37;;;;;;;-144.73;100.00;54473.38;5073416;28;20021;-73
2023/03/10 03:01:00;;;;;;;67.70;35.87;;;;;;;-144.73;100.00;54473.38;5046593;28;20469;-73
2023/03/10 03:03:25;;;;;;;66.00;35.13;;;;;;;-144.73;100.00;54483.66;5047312;28;20077;-73
2023/03/10 03:05:51;;;;;;;65.00;37.13;;;;;;;-144.73;100.00;54485.69;5054604;28;20020;-73
2023/03/10 03:08:17;;;;;;;63.33;33.60;;;;;;;-144.73;100.00;54440.53;5065028;28;20078;-72
2023/03/10 03:10:43;;;;;;;59.00;33.00;;;;;;;-144.73;100.00;54461.06;5065883;28;20053;-73
2023/03/10 03:13:08;;;;;;;67.43;35.00;;;;;;;-144.73;100.00;54456.97;5053140;28;20040;-73
2023/03/10 03:15:34;;;;;;;57.37;29.77;;;;;;;-144.73;100.00;54452.84;5072554;28;20032;-73
2023/03/10 03:18:00;;;;;;;61.40;32.83;;;;;;;-144.73;100.00;54493.91;5071661;28;20025;-72
2023/03/10 03:20:27;;;;;;;62.47;34.20;;;;;;;-144.73;100.00;54415.91;5064661;28;20028;-73
2023/03/10 03:22:54;;;;;;;58.87;31.80;;;;;;;-144.73;100.00;54485.69;5072140;28;20036;-73
2023/03/10 03:25:22;;;;;;;63.40;33.53;;;;;;;-144.73;100.00;54456.97;5054548;28;20056;-73
2023/03/10 03:27:47;;;;;;;57.80;31.03;;;;;;;-144.73;100.00;54444.66;5054202;28;20101;-73
2023/03/10 03:30:16;;;;;;;58.20;31.60;;;;;;;-144.73;100.00;54446.69;5053692;28;20555;-73
2023/03/10 03:32:41;;;;;;;59.87;32.63;;;;;;;-144.73;100.00;54498.00;5054446;28;20102;-73
2023/03/10 03:35:11;;;;;;;71.17;36.63;;;;;;;-144.73;100.00;54498.00;5054792;28;20064;-73
2023/03/10 03:37:36;;;;;;;67.93;36.33;;;;;;;-144.73;100.00;54473.38;5054729;28;20036;-73
2023/03/10 03:40:11;;;;;;;74.67;37.83;;;;;;;-144.73;100.00;54477.47;5054363;28;20028;-73
2023/03/10 03:42:36;;;;;;;70.30;33.90;;;;;;;-144.73;100.00;54500.06;5045380;28;20035;-73
2023/03/10 03:45:03;;;;;;;68.33;35.47;;;;;;;-144.73;100.00;54444.66;5071964;28;20025;-73
2023/03/10 03:47:28;;;;;;;77.77;39.00;;;;;;;-144.73;100.00;54448.75;5049065;28;20029;-73
2023/03/10 03:49:54;;;;;;;75.03;38.23;;;;;;;-144.73;100.00;54485.69;5069200;28;20093;-73
2023/03/10 03:52:19;;;;;;;76.10;38.70;;;;;;;-144.73;100.00;54473.38;5071541;28;20566;-73
2023/03/10 03:54:45;;;;;;;73.07;37.20;;;;;;;-144.73;100.00;54432.31;5054120;28;20060;-73
2023/03/10 03:57:10;;;;;;;76.27;37.60;;;;;;;-144.73;100.00;54444.66;5053673;28;20447;-73
2023/03/10 03:59:35;;;;;;;77.67;38.13;;;;;;;-144.73;100.00;54481.59;5054249;28;20055;-73
2023/03/10 04:02:01;;;;;;;74.90;36.93;;;;;;;-144.73;100.00;54438.50;5054108;28;20028;-73
2023/03/10 04:04:26;;;;;;;77.13;37.50;;;;;;;-144.73;100.00;54456.97;5054221;28;20028;-73
2023/03/10 04:06:51;;;;;;;73.70;35.63;;;;;;;-144.73;100.00;54420.00;5071672;28;20060;-73
2023/03/10 04:09:17;;;;;;;82.60;37.77;;;;;;;-144.73;100.00;54440.53;5054114;28;20066;-74
2023/03/10 04:11:42;;;;;;;87.20;40.60;;;;;;;-144.73;100.00;54424.13;5053927;28;20108;-72
2023/03/10 04:14:08;;;;;;;80.07;40.50;;;;;;;-144.73;100.00;54424.13;5053353;28;20025;-72
2023/03/10 04:16:33;;;;;;;87.40;38.17;;;;;;;-144.73;100.00;54448.75;5071413;28;20024;-74
2023/03/10 04:19:00;;;;;;;95.57;41.80;;;;;;;-144.73;100.00;54448.75;5053951;28;20034;-72
2023/03/10 04:21:25;;;;;;;85.33;40.17;;;;;;;-144.73;100.00;54498.00;5053360;28;20512;-73
2023/03/10 04:23:51;;;;;;;84.00;39.83;;;;;;;-144.73;100.00;54498.00;5053684;28;20103;-73
2023/03/10 04:26:16;;;;;;;88.07;39.73;;;;;;;-144.73;100.00;54436.44;5071139;28;20090;-73
2023/03/10 04:28:42;;;;;;;85.47;40.97;;;;;;;-144.73;100.00;54481.59;5053245;28;20021;-73
2023/03/10 04:31:14;;;;;;;81.17;37.00;;;;;;;-144.73;100.00;54434.38;5053209;28;20029;-74
2023/03/10 04:33:40;;;;;;;84.70;38.90;;;;;;;-144.73;100.00;54465.16;5053582;28;20038;-74
2023/03/10 04:36:06;;;;;;;92.10;42.77;;;;;;;-144.73;100.00;54461.06;5052098;28;20033;-74
2023/03/10 04:38:32;;;;;;;100.70;45.73;;;;;;;-144.73;100.00;54459.00;5053394;28;20078;-75
2023/03/10 04:40:57;;;;;;;96.80;42.13;;;;;;;-144.73;100.00;54452.84;5053345;28;20028;-75
2023/03/10 04:43:24;;;;;;;93.93;43.63;;;;;;;-144.73;100.00;54461.06;5053408;28;20035;-75
2023/03/10 04:45:49;;;;;;;96.93;43.43;;;;;;;-144.73;100.00;54481.59;5053527;28;20031;-75
2023/03/10 04:48:15;;;;;;;102.07;44.47;;;;;;;-144.73;100.00;54473.38;5053991;28;20016;-75
2023/03/10 04:50:41;;;;;;;94.27;42.37;;;;;;;-144.73;100.00;54473.38;5053724;28;20024;-75
2023/03/10 04:53:06;;;;;;;95.07;42.53;;;;;;;-144.73;100.00;54485.69;5052788;28;20063;-75
2023/03/10 04:55:31;;;;;;;108.67;47.83;;;;;;;-144.73;100.00;54444.66;5053270;28;20082;-76
2023/03/10 04:57:57;;;;;;;87.60;39.20;;;;;;;-144.73;100.00;54518.53;5052695;28;20029;-76
2023/03/10 05:00:23;;;;;;;91.53;41.83;;;;;;;-144.73;100.00;54461.06;5053107;28;20024;-76
2023/03/10 05:02:48;;;;;;;96.90;44.30;;;;;;;-144.73;100.00;54485.69;5070694;28;20024;-76
2023/03/10 05:05:13;;;;;;;101.80;41.43;;;;;;;-144.73;100.00;54473.38;5069808;28;20516;-76
2023/03/10 05:07:39;;;;;;;100.97;43.10;;;;;;;-144.73;100.00;54444.66;5052836;28;20485;-76
2023/03/10 05:10:06;;;;;;;95.33;41.60;;;;;;;-144.73;100.00;54424.13;5053194;28;20020;-76
2023/03/10 05:12:31;;;;;;;104.70;44.53;;;;;;;-144.73;100.00;54467.22;5052858;28;20035;-76
2023/03/10 05:14:56;;;;;;;89.13;41.97;;;;;;;-144.73;100.00;54461.06;5053373;28;20024;-76
2023/03/10 05:17:22;;;;;;;107.97;43.00;;;;;;;-144.73;100.00;54469.28;5070795;28;20028;-76
2023/03/10 05:19:47;;;;;;;108.20;47.00;;;;;;;-144.73;100.00;54444.66;5070809;28;20008;-77
2023/03/10 05:22:12;;;;;;;86.77;38.43;;;;;;;-144.73;100.00;54473.38;5052148;28;20036;-76
2023/03/10 05:24:38;;;;;;;105.03;42.50;;;;;;;-144.73;100.00;54456.97;5071226;28;20024;-75
2023/03/10 05:27:03;;;;;;;94.33;43.17;;;;;;;-144.73;100.00;54506.22;5052504;28;20036;-75
2023/03/10 05:29:29;;;;;;;91.83;43.77;;;;;;;-144.73;100.00;54487.75;5050536;28;20029;-75
2023/03/10 05:31:54;;;;;;;100.27;43.90;;;;;;;-144.73;100.00;54500.06;5052547;28;20112;-77
2023/03/10 05:34:19;;;;;;;94.27;42.47;;;;;;;-144.73;100.00;54498.00;5052361;28;20526;-77
2023/03/10 05:36:45;;;;;;;104.40;42.40;;;;;;;-144.73;100.00;54452.84;5052415;28;20024;-77
2023/03/10 05:39:11;;;;;;;101.97;44.60;;;;;;;-144.73;100.00;54473.38;5070459;28;20016;-77
2023/03/10 05:41:37;;;;;;;98.27;46.20;;;;;;;-144.73;100.00;54477.47;5044927;28;20040;-77
2023/03/10 05:44:02;;;;;;;104.33;45.57;;;;;;;-144.73;100.00;54469.28;5052091;28;20035;-77
2023/03/10 05:46:28;;;;;;;99.27;44.33;;;;;;;-144.73;100.00;54428.22;5052231;28;20094;-77
2023/03/10 05:48:55;;;;;;;109.37;46.33;;;;;;;-144.73;100.00;54493.91;5052932;28;20082;-77
2023/03/10 05:51:20;;;;;;;111.50;45.80;;;;;;;-144.73;100.00;54459.00;5048295;28;20032;-77
2023/03/10 05:53:45;;;;;;;107.83;47.47;;;;;;;-144.73;100.00;54456.97;5047703;28;20020;-77
2023/03/10 05:56:14;;;;;;;95.67;43.67;;;;;;;-144.73;100.00;54510.31;5051977;28;20055;-77
2023/03/10 05:58:40;;;;;;;93.67;43.67;;;;;;;-144.73;100.00;54475.44;5052618;28;20013;-77
2023/03/10 06:01:06;;;;;;;83.20;41.37;;;;;;;-144.73;100.00;54461.06;5052054;28;20489;-77
2023/03/10 06:03:31;;;;;;;94.27;43.37;;;;;;;-144.73;100.00;54477.47;5052292;28;20106;-77
2023/03/10 06:05:58;;;;;;;92.00;43.07;;;;;;;-144.73;100.00;54477.47;5068861;28;20402;-77
2023/03/10 06:08:25;;;;;;;91.90;41.53;;;;;;;-144.73;100.00;54477.47;5052473;28;20023;-77
2023/03/10 06:10:50;;;;;;;92.53;39.03;;;;;;;-144.73;100.00;54432.31;5069513;28;20017;-77
2023/03/10 06:13:18;;;;;;;88.47;43.73;;;;;;;-144.73;100.00;54463.13;5052197;28;20020;-77
2023/03/10 06:15:50;;;;;;;90.50;41.87;;;;;;;-144.73;100.00;54485.69;5052582;28;20093;-77
2023/03/10 06:18:17;;;;;;;94.67;41.50;;;;;;;-144.73;100.00;54473.38;5052237;28;20060;-77
2023/03/10 06:20:42;;;;;;;90.37;40.50;;;;;;;-144.73;100.00;54465.16;5051900;28;20477;-75
2023/03/10 06:23:08;;;;;;;90.80;41.67;;;;;;;-144.73;100.00;54444.66;5051784;28;20035;-75
2023/03/10 06:25:33;;;;;;;93.93;40.37;;;;;;;-144.73;100.00;54459.00;5052202;28;20031;-77
2023/03/10 06:27:58;;;;;;;81.07;38.87;;;;;;;-144.73;100.00;54473.38;5052058;28;20031;-77
2023/03/10 06:30:24;;;;;;;85.33;37.83;;;;;;;-144.73;100.00;54465.16;5063089;28;20021;-77
2023/03/10 06:32:49;;;;;;;71.40;36.73;;;;;;;-144.73;100.00;54522.63;5052030;28;20055;-77
2023/03/10 06:35:15;;;;;;;83.87;39.67;;;;;;;-144.73;100.00;54489.81;5052172;28;20031;-77
2023/03/10 06:37:41;;;;;;;94.03;41.27;;;;;;;-144.73;100.00;54487.75;5051924;28;20029;-77
2023/03/10 06:40:08;;;;;;;72.03;35.57;;;;;;;-144.73;100.00;54502.13;5051202;28;20031;-76
2023/03/10 06:42:34;;;;;;;81.63;37.87;;;;;;;-144.73;100.00;54465.16;5044789;28;20557;-77
2023/03/10 06:45:00;;;;;;;67.53;35.43;;;;;;;-144.73;100.00;54440.53;5051862;28;20020;-77
2023/03/10 06:47:25;;;;;;;78.37;37.90;;;;;;;-144.73;100.00;54473.38;5051462;28;20033;-77
2023/03/10 06:49:53;;;;;;;65.90;34.03;;;;;;;-144.73;100.00;54452.84;5052203;28;20017;-77
2023/03/10 06:52:18;;;;;;;75.57;36.90;;;;;;;-144.73;100.00;54469.28;5054495;28;20052;-77
2023/03/10 06:54:44;;;;;;;74.17;35.40;;;;;;;-144.73;100.00;54477.47;5055731;28;20071;-78
2023/03/10 06:57:09;;;;;;;61.77;31.13;;;;;;;-144.73;100.00;54469.28;5072705;28;20136;-77
2023/03/10 06:59:34;;;;;;;72.67;34.33;;;;;;;-144.73;100.00;54481.59;5055596;28;20044;-77
2023/03/10 07:02:00;;;;;;;69.87;33.07;;;;;;;-144.73;100.00;54487.75;5054778;28;20032;-77
2023/03/10 07:04:25;;;;;;;67.80;33.50;;;;;;;-144.73;100.00;54473.38;5072798;28;20373;-77
2023/03/10 07:06:51;;;;;;;74.03;34.73;;;;;;;-144.73;100.00;54481.59;5054796;28;20508;-76
2023/03/10 07:09:16;;;;;;;71.60;33.77;;;;;;;-144.73;100.00;54452.84;5055235;28;20017;-78
2023/03/10 07:11:41;;;;;;;76.33;36.20;;;;;;;-144.73;100.00;54489.81;5055266;28;20397;-74
2023/03/10 07:14:07;;;;;;;71.50;35.00;;;;;;;-144.73;100.00;54469.28;5073398;28;20040;-72
2023/03/10 07:16:32;;;;;;;67.70;35.07;;;;;;;-144.73;100.00;54518.53;5072070;28;20024;-72
2023/03/10 07:18:57;;;;;;;68.50;33.03;;;;;;;-144.73;100.00;54477.47;5072780;28;20521;-72
2023/03/10 07:21:22;;;;;;;60.93;31.33;;;;;;;-144.73;100.00;54477.47;5072317;28;20028;-70
2023/03/10 07:23:48;;;;;;;65.20;33.00;;;;;;;-144.73;100.00;54481.59;5055231;28;20016;-73
2023/03/10 07:26:17;;;;;;;68.83;33.43;;;;;;;-144.73;100.00;54456.97;5054813;28;20115;-72
2023/03/10 07:28:43;;;;;;;68.63;34.37;;;;;;;-144.73;100.00;54444.66;5052440;28;20028;-72
2023/03/10 07:31:10;;;;;;;65.57;32.70;;;;;;;-144.73;100.00;54440.53;5039555;28;20029;-73
2023/03/10 07:33:37;;;;;;;63.93;33.50;;;;;;;-144.73;100.00;54498.00;5055548;28;20043;-70
2023/03/10 07:36:17;;;;;;;63.33;33.30;;;;;;;-144.73;100.00;54463.13;5055024;28;20024;-71
2023/03/10 07:38:42;;;;;;;63.93;33.40;;;;;;;-144.73;100.00;54430.28;5038790;28;20019;-70
2023/03/10 07:41:10;;;;;;;65.53;33.13;;;;;;;-144.73;100.00;54487.75;5040901;28;20036;-71
2023/03/10 07:43:36;;;;;;;60.47;31.43;;;;;;;-144.73;100.00;54483.66;5046788;28;20031;-71
2023/03/10 07:46:09;;;;;;;64.83;33.67;;;;;;;-144.73;100.00;54469.28;5067906;28;20025;-70
2023/03/10 07:48:35;;;;;;;66.03;34.37;;;;;;;-144.73;100.00;54485.69;5051893;28;20027;-71
2023/03/10 07:51:00;;;;;;;62.07;33.60;;;;;;;-144.73;100.00;54489.81;5050507;28;20107;-70
2023/03/10 07:53:26;;;;;;;63.10;31.67;;;;;;;-144.73;100.00;54502.13;5069296;28;20029;-70
2023/03/10 07:55:52;;;;;;;58.20;30.00;;;;;;;-144.73;100.00;54436.44;5051364;28;20008;-71
2023/03/10 07:58:18;;;;;;;60.43;32.40;;;;;;;-144.73;100.00;54456.97;5068725;28;20074;-70
2023/03/10 08:00:43;;;;;;;63.33;31.20;;;;;;;-144.73;100.00;54481.59;5050747;28;20028;-70
2023/03/10 08:03:08;;;;;;;66.90;32.80;;;;;;;-144.73;100.00;54452.84;5049730;28;20260;-70
2023/03/10 08:05:39;;;;;;;52.63;29.03;;;;;;;-144.73;100.00;54465.16;5069641;28;20028;-70
2023/03/10 08:08:05;;;;;;;59.73;31.93;;;;;;;-144.73;100.00;54506.22;5051013;28;20044;-70
2023/03/10 08:10:30;;;;;;;61.67;33.13;;;;;;;-144.73;100.00;54461.06;5050877;28;20020;-71
2023/03/10 08:12:55;;;;;;;54.50;29.23;;;;;;;-144.73;100.00;54485.69;5047771;28;20115;-70
2023/03/10 08:15:21;;;;;;;62.67;31.60;;;;;;;-144.73;100.00;54489.81;5050552;28;20051;-70
2023/03/10 08:17:46;;;;;;;59.10;31.00;;;;;;;-144.73;100.00;54456.97;5049820;28;20041;-69
2023/03/10 08:20:12;;;;;;;68.17;33.83;;;;;;;-144.73;100.00;54452.84;5049180;28;20063;-70
2023/03/10 08:22:37;;;;;;;64.10;32.43;;;;;;;-144.73;100.00;54485.69;5043525;28;20032;-70
2023/03/10 08:25:03;;;;;;;54.87;29.87;;;;;;;-144.73;100.00;54434.38;5050589;28;20024;-70
2023/03/10 08:27:29;;;;;;;61.93;32.90;;;;;;;-144.73;100.00;54465.16;5050090;28;20032;-70
2023/03/10 08:29:54;;;;;;;59.53;32.33;;;;;;;-144.73;100.00;54473.38;5064641;28;20021;-70
2023/03/10 08:32:20;;;;;;;58.57;31.30;;;;;;;-144.73;100.00;54465.16;5049749;28;20044;-71
2023/03/10 08:34:45;;;;;;;58.33;32.57;;;;;;;-144.73;100.00;54463.13;5068241;28;20031;-70
2023/03/10 08:37:11;;;;;;;58.37;30.57;;;;;;;-144.73;100.00;54506.22;5052496;28;20033;-71
2023/03/10 08:39:37;;;;;;;59.20;31.77;;;;;;;-144.73;100.00;54444.66;5050203;28;20084;-71
2023/03/10 08:42:02;;;;;;;57.33;31.37;;;;;;;-144.73;100.00;54456.97;5067535;28;20131;-71
2023/03/10 08:44:27;;;;;;;55.17;30.47;;;;;;;-144.73;100.00;54461.06;5049311;28;20115;-72
2023/03/10 08:46:53;;;;;;;58.37;30.77;;;;;;;-144.73;100.00;54493.91;5065521;28;20125;-70
2023/03/10 08:49:20;;;;;;;58.70;31.67;;;;;;;-144.73;100.00;54436.44;5049483;28;20061;-71
2023/03/10 08:51:46;;;;;;;60.87;32.27;;;;;;;-144.73;100.00;54489.81;5047562;28;20033;-71
2023/03/10 08:54:14;;;;;;;49.93;27.13;;;;;;;-144.73;100.00;54510.31;5064859;28;20045;-71
2023/03/10 08:56:40;;;;;;;56.80;29.27;;;;;;;-144.73;100.00;54473.38;5047554;28;20040;-72
2023/03/10 08:59:05;;;;;;;53.20;29.48;;;;;;;-144.73;100.00;54461.06;5065539;28;20043;-71
2023/03/10 09:01:35;;;;;;;52.17;29.70;;;;;;;-144.73;100.00;54461.06;5043202;28;20509;-72
2023/03/10 09:04:02;;;;;;;57.30;28.73;;;;;;;-144.73;100.00;54493.91;5065661;28;20388;-72
2023/03/10 09:06:27;;;;;;;55.93;31.43;;;;;;;-144.73;100.00;54491.84;5047324;28;20155;-72
2023/03/10 09:08:53;;;;;;;52.97;29.07;;;;;;;-144.73;100.00;54485.69;5064416;28;20099;-72
2023/03/10 09:11:24;;;;;;;60.92;29.35;;;;;;;-144.73;100.00;54485.69;5046629;28;20511;-72
2023/03/10 09:13:50;;;;;;;57.33;30.45;;;;;;;-144.73;100.00;54456.97;5065866;28;20024;-72
2023/03/10 09:16:16;;;;;;;60.13;31.17;;;;;;;-144.73;100.00;54489.81;5045916;28;20106;-72
2023/03/10 09:18:42;;;;;;;60.53;31.47;;;;;;;-144.73;100.00;54510.31;5065484;28;20017;-72
2023/03/10 09:21:10;;;;;;;58.47;30.85;;;;;;;-144.73;100.00;54522.63;5039635;28;20059;-72
2023/03/10 09:23:36;;;;;;;56.57;30.83;;;;;;;-144.73;100.00;54469.28;5045502;28;20031;-72
2023/03/10 09:26:01;;;;;;;65.13;31.93;;;;;;;-144.73;100.00;54489.81;5047103;28;20024;-72
2023/03/10 09:28:27;;;;;;;63.25;32.78;;;;;;;-144.73;100.00;54452.84;5046744;28;20100;-72
2023/03/10 09:30:53;;;;;;;59.47;32.83;;;;;;;-144.73;100.00;54430.28;5063617;28;20017;-73
2023/03/10 09:33:20;;;;;;;67.00;32.90;;;;;;;-144.73;100.00;54469.28;5043733;28;20032;-72
2023/03/10 09:35:47;;;;;;;65.10;32.10;;;;;;;-144.73;100.00;54485.69;5047293;28;20051;-72
2023/03/10 09:38:13;;;;;;;66.10;32.60;;;;;;;-144.73;100.00;54469.28;5043525;28;20028;-73
2023/03/10 09:40:43;;;;;;;61.97;33.17;;;;;;;-144.73;100.00;54444.66;5046099;28;20035;-72
2023/03/10 09:43:18;;;;;;;61.30;31.23;;;;;;;-144.73;100.00;54481.59;5046085;28;20048;-72
2023/03/10 09:45:56;;;;;;;64.50;33.20;;;;;;;-144.73;100.00;54473.38;5048980;28;20020;-72
2023/03/10 09:49:00;;;;;;;67.93;33.10;;;;;;;-144.73;100.00;54459.00;5066439;28;20086;-72
2023/03/10 09:51:27;;;;;;;70.87;32.60;;;;;;;-144.73;100.00;54481.59;5021756;28;20041;-72
2023/03/10 09:54:10;;;;;;;69.07;33.67;;;;;;;-144.73;100.00;54440.53;5055485;28;20415;-71
2023/03/10 09:56:35;;;;;;;67.67;33.07;;;;;;;-144.73;100.00;54481.59;5057954;28;20036;-73
2023/03/10 09:59:13;;;;;;;64.93;33.13;;;;;;;-144.73;100.00;54456.97;5065506;28;20033;-72
2023/03/10 10:01:43;;;;;;;68.00;33.10;;;;;;;-144.73;100.00;54489.81;5044919;28;20032;-73
2023/03/10 10:04:21;;;;;;;63.03;33.67;;;;;;;-144.73;100.00;54452.84;5046603;28;20024;-72
2023/03/10 10:06:47;;;;;;;68.87;33.53;;;;;;;-144.73;100.00;54530.84;5040451;28;20091;-71
2023/03/10 10:09:31;;;;;;;70.67;33.80;;;;;;;-144.73;100.00;54498.00;5065785;28;20017;-71
2023/03/10 10:12:08;;;;;;;77.10;36.07;;;;;;;-144.73;100.00;54477.47;5046337;28;20389;-71
2023/03/10 10:14:33;;;;;;;71.33;34.80;;;;;;;-144.73;100.00;54448.75;5065429;28;20437;-71
2023/03/10 10:17:08;;;;;;;72.90;34.00;;;;;;;-144.73;100.00;54461.06;5041845;28;20075;-71
2023/03/10 10:19:35;;;;;;;79.33;37.20;;;;;;;-144.73;100.00;54461.06;5047652;28;20124;-72
2023/03/10 10:22:24;;;;;;;79.63;36.87;;;;;;;-144.73;100.00;54454.91;5040345;28;20041;-71
2023/03/10 10:25:13;;;;;;;82.43;35.83;;;;;;;-144.73;100.00;54510.31;5058635;28;20025;-71
2023/03/10 10:27:41;;;;;;;81.63;37.03;;;;;;;-144.73;100.00;54481.59;5045619;28;20037;-71
2023/03/10 10:30:28;;;;;;;86.03;38.07;;;;;;;-144.73;100.00;54485.69;5070569;28;20058;-72
2023/03/10 10:32:55;;;;;;;80.73;36.53;;;;;;;-144.73;100.00;54461.06;5067033;28;20032;-73
2023/03/10 10:35:22;;;;;;;88.47;37.37;;;;;;;-144.73;100.00;54479.53;5068607;28;20025;-72
2023/03/10 10:37:58;;;;;;;86.72;39.03;;;;;;;-144.73;100.00;54502.13;5068238;28;20392;-74
2023/03/10 10:40:27;;;;;;;89.22;37.38;;;;;;;-144.73;100.00;54510.31;5049011;28;20029;-74
2023/03/10 10:42:54;;;;;;;98.13;41.83;;;;;;;-144.73;100.00;54487.75;5049868;28;20048;-73
2023/03/10 10:45:29;;;;;;;103.18;42.53;;;;;;;-144.73;100.00;54456.97;5050225;28;20108;-73
2023/03/10 10:47:55;;;;;;;99.00;40.20;;;;;;;-144.73;100.00;54498.00;5050424;28;20123;-73
2023/03/10 10:50:32;;;;;;;108.13;44.55;;;;;;;-144.73;100.00;54495.97;5069795;28;20056;-73
2023/03/10 10:53:23;;;;;;;88.72;38.15;;;;;;;-144.73;100.00;54473.38;5052160;28;20025;-73
2023/03/10 10:56:03;;;;;;;95.32;45.45;;;;;;;-144.73;100.00;54485.69;5044100;28;20150;-76
2023/03/10 10:58:36;;;;;;;93.13;41.97;;;;;;;-144.73;100.00;54473.38;5068812;28;20032;-76